Time;durP1;ratioP1;P1;durP2;ratioP2;P2;SDS_P1;SDS_P2;PMS_P1;PMS_P2;Temp;Humidity;BMP_temperature;BMP_pressure;BME280_temperature;BME280_humidity;BME280_pressure;Samples;Min_cycle;Max_cycle;Signal;HPM_P1;HPM_P2
2022/07/16 00:02:15;;;;;;;2.70;2.40;;;17.00;71.20;;;;;;5043284;28;20552;-34
2022/07/16 00:04:41;;;;;;;2.80;2.60;;;16.90;71.10;;;;;;5046946;28;20029;-33
2022/07/16 00:07:06;;;;;;;4.28;2.70;;;16.90;70.60;;;;;;5042743;28;20033;-34
2022/07/16 00:09:32;;;;;;;6.28;2.55;;;16.90;70.80;;;;;;5047917;28;20160;-35
2022/07/16 00:11:58;;;;;;;3.90;2.50;;;16.80;71.60;;;;;;5043413;28;20140;-34
2022/07/16 00:14:24;;;;;;;4.25;2.53;;;16.80;71.90;;;;;;5045589;28;20025;-34
2022/07/16 00:16:49;;;;;;;3.33;2.42;;;16.70;72.80;;;;;;5045504;28;20029;-36
2022/07/16 00:19:23;;;;;;;2.40;2.20;;;16.70;72.70;;;;;;5046764;28;20712;-37
2022/07/16 00:21:54;;;;;;;3.38;2.50;;;16.70;72.70;;;;;;5045640;28;20135;-34
2022/07/16 00:24:20;;;;;;;3.15;2.30;;;16.70;71.80;;;;;;5043188;28;20060;-34
2022/07/16 00:26:47;;;;;;;2.78;2.40;;;16.50;74.10;;;;;;5047095;28;20033;-33
2022/07/16 00:29:13;;;;;;;3.95;2.40;;;16.40;75.10;;;;;;5046917;28;20032;-33
2022/07/16 00:31:39;;;;;;;3.25;2.30;;;16.40;74.70;;;;;;5044374;28;20087;-34
2022/07/16 00:34:07;;;;;;;3.67;2.80;;;16.40;75.00;;;;;;5048068;28;20080;-34
2022/07/16 00:36:36;;;;;;;4.38;2.47;;;16.30;75.80;;;;;;5048580;28;20024;-33
2022/07/16 00:39:04;;;;;;;2.88;2.63;;;16.30;76.70;;;;;;5047689;28;20470;-34
2022/07/16 00:41:30;;;;;;;3.22;2.60;;;16.30;78.70;;;;;;5049279;28;20410;-34
2022/07/16 00:44:04;;;;;;;5.05;2.80;;;16.20;77.00;;;;;;5048109;28;20041;-33
2022/07/16 00:46:30;;;;;;;2.88;2.60;;;16.20;77.60;;;;;;5048605;28;20040;-34
2022/07/16 00:48:57;;;;;;;4.35;2.70;;;16.10;78.10;;;;;;5045648;28;20030;-34
2022/07/16 00:51:23;;;;;;;4.22;2.83;;;16.00;80.80;;;;;;5046070;28;20025;-34
2022/07/16 00:53:50;;;;;;;4.57;2.70;;;15.90;81.60;;;;;;5049936;28;20040;-34
2022/07/16 00:56:16;;;;;;;2.90;2.70;;;15.80;83.10;;;;;;5050077;28;20041;-34
2022/07/16 00:58:44;;;;;;;3.13;2.83;;;15.80;82.30;;;;;;5049742;28;20021;-34
2022/07/16 01:01:10;;;;;;;3.90;2.60;;;15.70;82.00;;;;;;5050887;28;20044;-39
2022/07/16 01:03:37;;;;;;;4.28;2.70;;;15.70;82.80;;;;;;5049342;28;20091;-38
2022/07/16 01:06:05;;;;;;;3.95;2.95;;;15.70;81.20;;;;;;5049634;28;20481;-39
2022/07/16 01:08:36;;;;;;;4.90;2.78;;;15.60;82.00;;;;;;5050431;28;20029;-38
2022/07/16 01:11:05;;;;;;;2.92;2.60;;;15.50;82.10;;;;;;5050146;28;20466;-38
2022/07/16 01:13:32;;;;;;;2.63;2.40;;;15.30;81.10;;;;;;5046542;28;20032;-40
2022/07/16 01:15:57;;;;;;;3.80;2.72;;;15.40;84.70;;;;;;5048076;28;20071;-38
2022/07/16 01:18:23;;;;;;;3.95;2.63;;;15.40;82.90;;;;;;5050491;28;20493;-39
2022/07/16 01:20:49;;;;;;;2.97;2.70;;;15.40;83.10;;;;;;5047937;28;20037;-38
2022/07/16 01:23:19;;;;;;;3.08;2.88;;;15.30;88.70;;;;;;5049783;28;20706;-38
2022/07/16 01:25:45;;;;;;;3.20;2.90;;;15.20;87.40;;;;;;5050112;28;20035;-38
2022/07/16 01:28:11;;;;;;;3.13;2.75;;;15.20;86.70;;;;;;5054237;28;20024;-38
2022/07/16 01:30:37;;;;;;;3.92;2.83;;;15.10;89.60;;;;;;5048412;28;20112;-37
2022/07/16 01:33:28;;;;;;;5.25;2.88;;;14.90;92.00;;;;;;5050252;28;20028;-38
2022/07/16 01:36:01;;;;;;;3.10;2.90;;;14.80;92.00;;;;;;5052241;28;20037;-39
2022/07/16 01:38:27;;;;;;;3.78;3.47;;;14.70;91.60;;;;;;5050704;28;20021;-39
2022/07/16 01:40:53;;;;;;;3.15;2.78;;;14.70;91.10;;;;;;5055730;28;20025;-39
2022/07/16 01:43:22;;;;;;;4.00;2.78;;;14.50;93.40;;;;;;5050705;28;20448;-38
2022/07/16 01:45:47;;;;;;;;;;;14.50;91.70;;;;;;5052072;28;20033;-37
2022/07/16 01:48:14;;;;;;;3.90;2.70;;;14.60;92.00;;;;;;5049153;28;19912;-39
2022/07/16 01:50:42;;;;;;;3.17;2.92;;;14.60;91.70;;;;;;5052307;28;20038;-36
2022/07/16 01:53:08;;;;;;;3.10;2.80;;;14.60;91.50;;;;;;5049462;28;20020;-39
2022/07/16 01:55:34;;;;;;;4.60;3.00;;;14.60;90.60;;;;;;5058820;28;20028;-38
2022/07/16 01:58:04;;;;;;;2.83;2.63;;;14.70;90.10;;;;;;5051426;28;20025;-37
2022/07/16 02:00:30;;;;;;;3.80;2.80;;;14.60;90.40;;;;;;5051055;28;20040;-37
2022/07/16 02:02:56;;;;;;;3.25;2.88;;;14.70;90.50;;;;;;5046001;28;20060;-36
2022/07/16 02:05:22;;;;;;;2.88;2.65;;;14.60;90.30;;;;;;5063460;28;20091;-37
2022/07/16 02:07:47;;;;;;;5.60;2.90;;;14.60;91.40;;;;;;5048002;28;20025;-38
2022/07/16 02:10:14;;;;;;;2.92;2.63;;;14.60;90.80;;;;;;5054473;28;20108;-37
2022/07/16 02:12:39;;;;;;;2.80;2.60;;;14.60;90.70;;;;;;5047000;28;20063;-36
2022/07/16 02:15:06;;;;;;;5.18;2.60;;;14.60;90.20;;;;;;5045247;28;20110;-39
2022/07/16 02:17:32;;;;;;;4.32;2.75;;;14.50;92.50;;;;;;5049164;28;20021;-37
2022/07/16 02:19:57;;;;;;;3.72;2.53;;;14.50;91.10;;;;;;5047773;28;20031;-38
2022/07/16 02:22:23;;;;;;;4.32;3.08;;;14.40;90.40;;;;;;5075843;28;20048;-40
2022/07/16 02:24:49;;;;;;;5.47;2.90;;;14.40;92.90;;;;;;5076098;28;20033;-36
2022/07/16 02:27:14;;;;;;;3.75;2.80;;;14.30;91.00;;;;;;5049710;28;20043;-38
2022/07/16 02:29:40;;;;;;;4.45;2.83;;;14.30;91.40;;;;;;5054000;28;20041;-40
2022/07/16 02:32:06;;;;;;;3.70;2.97;;;14.20;92.00;;;;;;5046629;28;20033;-39
2022/07/16 02:34:31;;;;;;;3.10;2.80;;;13.90;93.20;;;;;;5050300;28;20083;-38
2022/07/16 02:36:57;;;;;;;2.85;2.65;;;13.90;92.90;;;;;;5048329;28;20167;-39
2022/07/16 02:39:22;;;;;;;3.45;2.70;;;13.90;92.20;;;;;;5048763;28;20025;-37
2022/07/16 02:41:48;;;;;;;3.17;2.53;;;13.90;92.20;;;;;;5046815;28;20078;-36
2022/07/16 02:44:14;;;;;;;4.03;2.80;;;13.80;95.50;;;;;;5047439;28;20389;-37
2022/07/16 02:46:39;;;;;;;3.95;2.92;;;13.80;95.20;;;;;;5052228;28;20033;-39
2022/07/16 02:49:05;;;;;;;4.65;3.20;;;13.70;95.00;;;;;;5050156;28;20477;-39
2022/07/16 02:51:31;;;;;;;2.90;2.70;;;13.60;96.30;;;;;;5051813;28;20021;-40
2022/07/16 02:53:56;;;;;;;2.88;2.53;;;13.50;97.70;;;;;;5049229;28;20033;-38
2022/07/16 02:56:22;;;;;;;3.10;2.80;;;13.50;93.30;;;;;;5050721;28;20497;-39
2022/07/16 02:58:47;;;;;;;3.70;2.20;;;13.50;91.60;;;;;;5050202;28;20033;-40
2022/07/16 03:01:13;;;;;;;5.05;2.97;;;13.40;91.70;;;;;;5052579;28;20032;-37
2022/07/16 03:03:38;;;;;;;3.22;2.85;;;13.50;93.50;;;;;;5050056;28;20482;-39
2022/07/16 03:06:04;;;;;;;4.90;3.38;;;12.90;97.30;;;;;;5051033;28;20040;-37
2022/07/16 03:08:30;;;;;;;5.40;3.72;;;12.90;99.00;;;;;;5051486;28;20084;-37
2022/07/16 03:10:55;;;;;;;3.42;2.90;;;13.00;98.10;;;;;;5050462;28;20029;-39
2022/07/16 03:13:21;;;;;;;3.45;2.97;;;13.00;98.00;;;;;;5047509;28;20068;-38
2022/07/16 03:15:47;;;;;;;4.47;3.17;;;13.10;97.40;;;;;;5046470;28;20135;-39
2022/07/16 03:18:12;;;;;;;3.42;3.00;;;13.00;99.30;;;;;;5051211;28;20040;-39
2022/07/16 03:20:38;;;;;;;3.95;3.03;;;13.00;99.30;;;;;;5047411;28;20032;-40
2022/07/16 03:23:03;;;;;;;4.47;3.05;;;12.80;99.90;;;;;;5047247;28;20049;-39
2022/07/16 03:25:29;;;;;;;3.42;2.75;;;12.70;99.90;;;;;;5046897;28;20059;-40
2022/07/16 03:27:55;;;;;;;3.78;3.00;;;12.70;99.90;;;;;;5046556;28;20036;-38
2022/07/16 03:30:21;;;;;;;4.90;3.22;;;12.20;99.90;;;;;;5045116;28;20068;-37
2022/07/16 03:32:46;;;;;;;5.07;3.17;;;11.60;99.90;;;;;;5049411;28;20033;-40
2022/07/16 03:35:13;;;;;;;3.33;3.03;;;11.60;99.90;;;;;;5048820;28;20032;-36
2022/07/16 03:40:24;;;;;;;4.35;3.00;;;11.90;99.90;;;;;;5043633;28;20066;-39
2022/07/16 03:42:50;;;;;;;4.57;3.42;;;12.00;99.90;;;;;;5044466;28;20032;-38
2022/07/16 03:45:15;;;;;;;5.05;3.60;;;12.00;99.90;;;;;;5045828;28;20505;-37
2022/07/16 03:47:41;;;;;;;5.45;3.33;;;12.00;99.90;;;;;;5045826;28;20028;-36
2022/07/16 03:50:07;;;;;;;3.85;3.35;;;12.20;99.90;;;;;;5049264;28;20052;-37
2022/07/16 03:52:32;;;;;;;4.25;3.55;;;12.20;99.90;;;;;;5049211;28;20033;-38
2022/07/16 03:54:58;;;;;;;3.65;2.83;;;12.20;99.90;;;;;;5050854;28;20493;-40
2022/07/16 03:57:24;;;;;;;5.78;3.83;;;12.30;99.90;;;;;;5048347;28;20114;-38
2022/07/16 03:59:49;;;;;;;7.72;3.30;;;12.40;99.90;;;;;;5046867;28;20033;-36
2022/07/16 04:02:15;;;;;;;4.03;3.03;;;12.50;99.90;;;;;;5049212;28;20045;-37
2022/07/16 04:04:40;;;;;;;5.18;3.05;;;12.40;99.90;;;;;;5047060;28;20036;-39
2022/07/16 04:07:06;;;;;;;3.88;3.35;;;12.10;99.90;;;;;;5048523;28;20508;-39
2022/07/16 04:09:32;;;;;;;3.22;2.92;;;11.70;99.90;;;;;;5051469;28;20063;-40
2022/07/16 04:11:57;;;;;;;3.50;3.20;;;11.70;99.90;;;;;;5047631;28;20040;-39
2022/07/16 04:14:23;;;;;;;3.95;3.25;;;11.90;99.90;;;;;;5047640;28;20454;-39
2022/07/16 04:16:48;;;;;;;4.28;3.05;;;12.00;99.90;;;;;;5046213;28;20044;-39
2022/07/16 04:19:14;;;;;;;4.63;4.25;;;12.10;99.90;;;;;;5046186;28;20033;-40
2022/07/16 04:21:40;;;;;;;3.38;3.08;;;12.10;99.90;;;;;;5054931;28;20044;-40
2022/07/16 04:24:05;;;;;;;3.95;3.50;;;12.20;99.90;;;;;;5044215;28;20037;-35
2022/07/16 04:26:31;;;;;;;3.40;3.10;;;12.30;99.90;;;;;;5045296;28;20461;-39
2022/07/16 04:28:57;;;;;;;4.03;3.33;;;12.30;99.90;;;;;;5046170;28;20028;-39
2022/07/16 04:31:23;;;;;;;4.32;3.63;;;12.20;99.90;;;;;;5041750;28;20049;-40
2022/07/16 04:33:49;;;;;;;3.60;3.13;;;12.00;99.90;;;;;;5043604;28;20044;-38
2022/07/16 04:36:15;;;;;;;4.68;3.20;;;12.00;99.90;;;;;;5045018;28;20033;-39
2022/07/16 04:38:41;;;;;;;4.85;3.45;;;12.20;99.90;;;;;;5042930;28;20110;-40
2022/07/16 04:41:07;;;;;;;6.22;3.78;;;12.40;99.90;;;;;;5047145;28;20712;-39
2022/07/16 04:43:32;;;;;;;4.65;3.28;;;12.60;99.90;;;;;;5046636;28;20418;-36
2022/07/16 04:45:58;;;;;;;4.18;3.20;;;12.80;99.90;;;;;;5045018;28;20029;-39
2022/07/16 04:48:24;;;;;;;4.70;3.08;;;13.00;99.90;;;;;;5047420;28;20032;-40
2022/07/16 04:50:49;;;;;;;4.63;3.70;;;13.00;99.90;;;;;;5048827;28;20093;-37
2022/07/16 04:53:15;;;;;;;5.25;4.07;;;13.00;99.90;;;;;;5047597;28;20051;-37
2022/07/16 04:55:41;;;;;;;5.13;3.72;;;13.20;99.90;;;;;;5048342;28;20040;-39
2022/07/16 04:58:06;;;;;;;5.72;3.80;;;13.20;99.90;;;;;;5050072;28;20039;-37
2022/07/16 05:00:32;;;;;;;7.50;3.80;;;13.10;99.90;;;;;;5042286;28;20040;-40
2022/07/16 05:02:58;;;;;;;4.47;3.95;;;13.30;99.90;;;;;;5046239;28;20370;-37
2022/07/16 05:05:33;;;;;;;5.53;4.03;;;13.20;99.90;;;;;;5045932;28;20060;-39
2022/07/16 05:07:59;;;;;;;4.03;3.63;;;13.30;99.90;;;;;;5046807;28;20056;-37
2022/07/16 05:10:27;;;;;;;5.88;4.00;;;13.20;99.90;;;;;;5045707;28;20037;-39
2022/07/16 05:12:53;;;;;;;5.13;3.88;;;13.40;99.90;;;;;;5044669;28;20033;-40
2022/07/16 05:15:19;;;;;;;6.47;4.53;;;13.60;99.90;;;;;;5036552;28;20091;-39
2022/07/16 05:17:45;;;;;;;6.43;4.00;;;13.80;99.90;;;;;;5044008;28;20130;-39
2022/07/16 05:20:11;;;;;;;4.40;4.00;;;14.10;99.90;;;;;;5046718;28;20025;-39
2022/07/16 05:22:36;;;;;;;5.05;4.40;;;14.30;99.90;;;;;;5046046;28;20560;-39
2022/07/16 05:25:04;;;;;;;5.47;4.53;;;14.50;99.90;;;;;;5047663;28;20024;-37
2022/07/16 05:27:30;;;;;;;6.85;4.28;;;14.60;99.90;;;;;;5052324;28;20489;-38
2022/07/16 05:29:55;;;;;;;5.75;3.95;;;14.90;99.20;;;;;;5046766;28;20109;-38
2022/07/16 05:32:21;;;;;;;6.72;4.18;;;15.00;99.30;;;;;;5045346;28;20029;-39
2022/07/16 05:34:46;;;;;;;4.93;4.35;;;15.10;98.10;;;;;;5049666;28;20029;-38
2022/07/16 05:37:12;;;;;;;6.53;4.20;;;15.20;97.70;;;;;;5046662;28;20025;-38
2022/07/16 05:39:38;;;;;;;7.60;5.10;;;15.30;98.50;;;;;;5053817;28;20057;-40
2022/07/16 05:42:03;;;;;;;7.03;4.75;;;15.40;97.10;;;;;;5049083;28;20029;-38
2022/07/16 05:44:29;;;;;;;4.40;4.00;;;15.60;96.00;;;;;;5049468;28;20096;-37
2022/07/16 05:46:54;;;;;;;5.63;4.15;;;15.80;96.00;;;;;;5052230;28;20029;-39
2022/07/16 05:49:20;;;;;;;5.22;4.50;;;16.00;95.20;;;;;;5048378;28;20040;-36
2022/07/16 05:51:46;;;;;;;4.85;4.30;;;15.90;95.10;;;;;;5048770;28;20033;-37
2022/07/16 05:54:12;;;;;;;5.63;4.43;;;15.90;94.80;;;;;;5049362;28;20371;-38
2022/07/16 05:56:37;;;;;;;5.38;4.22;;;16.10;95.20;;;;;;5048766;28;20114;-37
2022/07/16 05:59:03;;;;;;;5.85;4.13;;;16.20;94.00;;;;;;5049758;28;20032;-37
2022/07/16 06:01:29;;;;;;;6.18;4.63;;;16.30;94.20;;;;;;5047305;28;20653;-39
2022/07/16 06:03:55;;;;;;;5.60;4.35;;;16.40;93.50;;;;;;5047886;28;20028;-38
2022/07/16 06:06:21;;;;;;;4.70;3.67;;;16.60;93.50;;;;;;5047368;28;20482;-36
2022/07/16 06:08:47;;;;;;;5.15;3.95;;;16.50;92.70;;;;;;5048515;28;20550;-38
2022/07/16 06:11:12;;;;;;;4.60;4.18;;;16.70;91.00;;;;;;5040554;28;20033;-38
2022/07/16 06:13:38;;;;;;;5.43;4.00;;;16.80;90.70;;;;;;5045737;28;20029;-37
2022/07/16 06:16:06;;;;;;;5.25;3.78;;;16.80;90.20;;;;;;5040205;28;20047;-38
2022/07/16 06:18:32;;;;;;;7.80;3.80;;;16.90;90.30;;;;;;5051100;28;20031;-37
2022/07/16 06:20:58;;;;;;;5.47;3.90;;;17.00;90.70;;;;;;5047534;28;20140;-40
2022/07/16 06:23:24;;;;;;;7.30;4.47;;;17.30;91.60;;;;;;5046849;28;20139;-40
2022/07/16 06:25:50;;;;;;;6.93;3.78;;;17.40;89.80;;;;;;5046175;28;20492;-39
2022/07/16 06:28:15;;;;;;;4.78;3.80;;;17.50;88.60;;;;;;5050914;28;20036;-36
2022/07/16 06:30:41;;;;;;;6.07;3.90;;;17.50;87.50;;;;;;5049237;28;20112;-37
2022/07/16 06:33:07;;;;;;;6.47;3.60;;;17.70;88.30;;;;;;5048097;28;20040;-40
2022/07/16 06:35:32;;;;;;;4.25;3.67;;;17.90;85.30;;;;;;5047370;28;20033;-39
2022/07/16 06:37:58;;;;;;;5.72;3.80;;;18.00;86.00;;;;;;5048147;28;20029;-39
2022/07/16 06:40:23;;;;;;;5.28;3.75;;;18.20;89.00;;;;;;5074327;28;20545;-39
2022/07/16 06:42:49;;;;;;;4.15;3.40;;;18.10;79.80;;;;;;5045939;28;20033;-37
2022/07/16 06:45:15;;;;;;;4.78;3.35;;;18.40;82.30;;;;;;5041844;28;20064;-39
2022/07/16 06:47:41;;;;;;;4.13;3.40;;;18.50;77.80;;;;;;5046647;28;20048;-38
2022/07/16 06:50:07;;;;;;;4.75;3.20;;;18.70;76.20;;;;;;5044644;28;20703;-37
2022/07/16 06:52:32;;;;;;;4.07;3.30;;;18.80;75.00;;;;;;5048221;28;20025;-40
2022/07/16 06:54:58;;;;;;;3.63;3.33;;;18.70;75.90;;;;;;5046130;28;20064;-40
2022/07/16 06:57:24;;;;;;;4.35;3.65;;;18.90;77.60;;;;;;5049049;28;20390;-38
2022/07/16 06:59:49;;;;;;;4.40;3.28;;;19.20;76.70;;;;;;5046645;28;20028;-39
2022/07/16 07:02:15;;;;;;;6.35;3.28;;;19.40;77.00;;;;;;5045279;28;20041;-40
2022/07/16 07:04:41;;;;;;;3.55;2.70;;;19.60;73.70;;;;;;5049255;28;20107;-39
2022/07/16 07:07:07;;;;;;;4.85;3.15;;;19.90;75.00;;;;;;5044419;28;20481;-38
2022/07/16 07:09:32;;;;;;;3.65;3.08;;;20.10;65.60;;;;;;5050337;28;20038;-37
2022/07/16 07:11:58;;;;;;;4.00;3.45;;;19.70;66.30;;;;;;5047562;28;20041;-38
2022/07/16 07:14:23;;;;;;;7.80;3.40;;;20.00;67.40;;;;;;5048135;28;20549;-39
2022/07/16 07:16:49;;;;;;;6.32;2.78;;;20.30;64.10;;;;;;5045276;28;20025;-37
2022/07/16 07:19:14;;;;;;;4.20;2.85;;;20.40;64.10;;;;;;5048268;28;20033;-40
2022/07/16 07:21:40;;;;;;;3.42;2.80;;;20.50;59.40;;;;;;5047818;28;20040;-37
2022/07/16 07:24:06;;;;;;;3.53;2.70;;;20.80;56.60;;;;;;5048466;28;20382;-39
2022/07/16 07:26:31;;;;;;;7.80;2.60;;;20.80;58.20;;;;;;5047605;28;20036;-39
2022/07/16 07:28:57;;;;;;;3.33;2.20;;;21.10;56.80;;;;;;5042968;28;20590;-37
2022/07/16 07:31:23;;;;;;;3.28;2.60;;;21.40;55.70;;;;;;5049003;28;20041;-39
2022/07/16 07:33:48;;;;;;;9.93;2.30;;;21.60;56.60;;;;;;5043728;28;20104;-38
2022/07/16 07:36:14;;;;;;;3.15;2.30;;;21.70;53.00;;;;;;5042154;28;20028;-39
2022/07/16 07:38:40;;;;;;;4.13;2.42;;;22.00;49.80;;;;;;5043907;28;20035;-38
2022/07/16 07:41:06;;;;;;;5.15;2.45;;;22.30;50.20;;;;;;5045388;28;20025;-37
2022/07/16 07:43:31;;;;;;;2.95;2.22;;;22.20;48.50;;;;;;5048528;28;20016;-39
2022/07/16 07:45:57;;;;;;;2.42;2.22;;;22.30;45.40;;;;;;5041753;28;20025;-39
2022/07/16 07:48:23;;;;;;;3.45;2.50;;;22.50;44.70;;;;;;5047738;28;20036;-38
2022/07/16 07:50:48;;;;;;;2.60;2.13;;;22.20;44.20;;;;;;5046518;28;20440;-38
2022/07/16 07:53:14;;;;;;;3.22;2.67;;;22.40;44.60;;;;;;5048337;28;20025;-39
2022/07/16 07:55:41;;;;;;;5.13;2.60;;;22.50;45.10;;;;;;5043294;28;20025;-38
2022/07/16 07:58:07;;;;;;;5.47;2.47;;;22.60;41.80;;;;;;5046078;28;20082;-39
2022/07/16 08:00:32;;;;;;;2.70;2.25;;;22.80;42.70;;;;;;5044288;28;20432;-37
2022/07/16 08:02:58;;;;;;;21.80;4.88;;;22.90;42.40;;;;;;5044839;28;20029;-37
2022/07/16 08:05:24;;;;;;;4.18;2.50;;;22.90;42.90;;;;;;5048888;28;20549;-39
2022/07/16 08:07:50;;;;;;;3.60;2.42;;;22.60;41.50;;;;;;5043737;28;20390;-36
2022/07/16 08:10:16;;;;;;;3.97;2.70;;;22.80;42.20;;;;;;5047238;28;20120;-38
2022/07/16 08:12:41;;;;;;;2.72;2.30;;;22.80;41.10;;;;;;5048154;28;20063;-39
2022/07/16 08:15:08;;;;;;;4.43;2.25;;;22.80;42.40;;;;;;5046155;28;20026;-39
2022/07/16 08:17:35;;;;;;;5.10;2.40;;;22.80;42.80;;;;;;5045890;28;20053;-39
2022/07/16 08:20:00;;;;;;;4.88;2.38;;;23.20;41.60;;;;;;5046549;28;20125;-36
2022/07/16 08:22:26;;;;;;;2.38;2.15;;;23.20;40.10;;;;;;5048974;28;20119;-39
2022/07/16 08:27:36;;;;;;;3.90;2.30;;;22.90;40.20;;;;;;5046639;28;20398;-38
2022/07/16 08:30:02;;;;;;;3.05;2.20;;;22.60;41.10;;;;;;5047032;28;20033;-36
2022/07/16 08:32:28;;;;;;;5.07;2.22;;;22.60;41.20;;;;;;5044716;28;20049;-40
2022/07/16 08:34:53;;;;;;;2.22;2.08;;;23.10;41.30;;;;;;5047707;28;20071;-38
2022/07/16 08:37:35;;;;;;;3.17;2.70;;;23.50;40.70;;;;;;5048645;28;20402;-40
2022/07/16 08:40:07;;;;;;;3.08;2.78;;;23.70;41.90;;;;;;5047925;28;20021;-38
2022/07/16 08:42:34;;;;;;;4.50;2.63;;;23.90;40.00;;;;;;5046206;28;20025;-40
2022/07/16 08:45:01;;;;;;;3.47;2.83;;;24.10;39.20;;;;;;5045751;28;20028;-38
2022/07/16 08:47:30;;;;;;;6.45;2.60;;;24.20;38.50;;;;;;5045712;28;20036;-38
2022/07/16 08:50:01;;;;;;;4.05;2.67;;;24.20;39.30;;;;;;5045073;28;20589;-38
2022/07/16 08:52:28;;;;;;;2.85;2.42;;;24.00;39.50;;;;;;5046123;28;20033;-39
2022/07/16 08:54:55;;;;;;;2.58;2.38;;;23.60;39.60;;;;;;5047646;28;20820;-40
2022/07/16 08:57:21;;;;;;;5.83;2.63;;;23.50;39.60;;;;;;5044847;28;20433;-39
2022/07/16 08:59:48;;;;;;;5.43;2.92;;;23.50;39.80;;;;;;5045599;28;20505;-39
2022/07/16 09:02:14;;;;;;;2.88;2.67;;;23.70;42.00;;;;;;5044136;28;20033;-38
2022/07/16 09:04:41;;;;;;;3.92;2.65;;;23.90;39.60;;;;;;5043805;28;20056;-39
2022/07/16 09:07:10;;;;;;;10.50;2.55;;;24.20;38.10;;;;;;5043196;28;20037;-36
2022/07/16 09:09:36;;;;;;;3.33;2.45;;;24.00;37.50;;;;;;5039377;28;20029;-39
2022/07/16 09:12:01;;;;;;;2.47;2.28;;;24.30;39.90;;;;;;5041656;28;20039;-39
2022/07/16 09:14:27;;;;;;;3.00;2.70;;;24.80;38.30;;;;;;5048419;28;20045;-39
2022/07/16 09:16:53;;;;;;;3.78;2.47;;;25.10;36.50;;;;;;5043355;28;20037;-39
2022/07/16 09:19:24;;;;;;;4.38;2.50;;;24.90;37.80;;;;;;5043142;28;20486;-40
2022/07/16 09:22:03;;;;;;;4.13;2.67;;;24.30;38.60;;;;;;5044192;28;20120;-36
2022/07/16 09:24:52;;;;;;;2.75;2.55;;;24.70;37.10;;;;;;5048454;28;20037;-37
2022/07/16 09:27:22;;;;;;;3.72;2.50;;;25.10;36.60;;;;;;5048993;28;20164;-36
2022/07/16 09:29:53;;;;;;;4.32;2.60;;;25.10;36.80;;;;;;5052357;28;20028;-39
2022/07/16 09:32:38;;;;;;;3.53;2.35;;;25.00;36.50;;;;;;5046944;28;20118;-36
2022/07/16 09:35:13;;;;;;;4.22;2.90;;;25.10;36.50;;;;;;5051139;28;20087;-39
2022/07/16 09:37:56;;;;;;;3.00;2.30;;;24.70;36.40;;;;;;5050306;28;20493;-40
2022/07/16 09:40:43;;;;;;;4.20;2.70;;;24.30;37.10;;;;;;5050279;28;20397;-40
2022/07/16 09:43:11;;;;;;;4.93;2.50;;;24.20;38.90;;;;;;5050255;28;20351;-38
2022/07/16 09:45:39;;;;;;;2.40;2.20;;;24.40;37.10;;;;;;5050174;28;20089;-36
2022/07/16 09:48:27;;;;;;;6.22;2.70;;;24.50;35.90;;;;;;5050335;28;20037;-39
2022/07/16 09:50:56;;;;;;;2.88;2.58;;;24.90;35.50;;;;;;5048614;28;20074;-39
2022/07/16 09:53:24;;;;;;;2.42;2.28;;;24.40;36.10;;;;;;5048340;28;20102;-39
2022/07/16 09:56:05;;;;;;;4.13;2.35;;;24.70;37.20;;;;;;5040960;28;20095;-38
2022/07/16 09:58:32;;;;;;;2.55;2.35;;;25.00;35.50;;;;;;5045970;28;20021;-37
2022/07/16 10:00:59;;;;;;;3.10;2.40;;;25.10;33.60;;;;;;5050628;28;20041;-37
2022/07/16 10:03:25;;;;;;;2.80;2.42;;;25.20;35.70;;;;;;5045352;28;20037;-37
2022/07/16 10:05:51;;;;;;;2.45;2.25;;;25.40;34.20;;;;;;5049691;28;20474;-36
2022/07/16 10:08:17;;;;;;;2.65;2.40;;;25.50;35.30;;;;;;5049109;28;20032;-38
2022/07/16 10:10:44;;;;;;;4.63;2.55;;;25.70;35.20;;;;;;5049037;28;20033;-40
2022/07/16 10:13:10;;;;;;;3.03;2.60;;;26.00;34.60;;;;;;5048517;28;20029;-38
2022/07/16 10:15:37;;;;;;;3.13;2.40;;;25.80;35.00;;;;;;5046762;28;20294;-39
2022/07/16 10:18:03;;;;;;;2.85;2.22;;;25.50;35.60;;;;;;5049608;28;20021;-36
2022/07/16 10:20:35;;;;;;;3.47;2.40;;;25.50;34.70;;;;;;5048891;28;20564;-36
2022/07/16 10:23:05;;;;;;;2.88;2.13;;;25.80;35.20;;;;;;5050674;28;20414;-37
2022/07/16 10:25:32;;;;;;;3.45;2.38;;;25.90;34.10;;;;;;5050765;28;20033;-37
2022/07/16 10:27:58;;;;;;;4.25;2.17;;;26.10;34.50;;;;;;5074144;28;20025;-38
2022/07/16 10:30:29;;;;;;;4.95;2.70;;;25.60;35.80;;;;;;5045726;28;20264;-36
2022/07/16 10:33:06;;;;;;;4.18;2.42;;;25.70;35.90;;;;;;5045625;28;20125;-37
2022/07/16 10:35:34;;;;;;;2.95;2.65;;;25.80;34.60;;;;;;5046258;28;20043;-36
2022/07/16 10:38:06;;;;;;;;;;;25.20;33.70;;;;;;5044484;28;20024;-36
2022/07/16 10:40:32;;;;;;;4.35;2.42;;;25.40;35.20;;;;;;5049269;28;19916;-40
2022/07/16 10:43:19;;;;;;;4.22;2.20;;;25.40;35.80;;;;;;5047569;28;20522;-38
2022/07/16 10:45:54;;;;;;;2.47;1.95;;;25.50;35.30;;;;;;5047776;28;20414;-38
2022/07/16 10:48:20;;;;;;;4.65;2.00;;;25.70;34.10;;;;;;5045055;28;20429;-39
2022/07/16 10:51:11;;;;;;;2.95;1.95;;;25.30;32.80;;;;;;5044815;28;20033;-39
2022/07/16 10:54:14;;;;;;;5.45;2.30;;;24.30;33.60;;;;;;5044959;28;20040;-38
2022/07/16 10:56:48;;;;;;;2.17;1.80;;;24.50;33.90;;;;;;5044342;28;20047;-39
2022/07/16 10:59:22;;;;;;;2.15;1.85;;;24.80;34.20;;;;;;5046086;28;20516;-39
2022/07/16 11:01:51;;;;;;;4.03;1.95;;;25.20;34.50;;;;;;5044341;28;20554;-37
2022/07/16 11:04:27;;;;;;;2.80;2.03;;;25.40;34.80;;;;;;5048358;28;20076;-39
2022/07/16 11:06:54;;;;;;;2.15;2.03;;;25.20;34.10;;;;;;5047661;28;20067;-39
2022/07/16 11:09:41;;;;;;;4.57;2.00;;;25.20;34.60;;;;;;5046934;28;20482;-39
2022/07/16 11:12:16;;;;;;;2.97;1.98;;;25.10;34.80;;;;;;5044545;28;20444;-37
2022/07/16 11:14:44;;;;;;;2.20;2.00;;;24.90;34.20;;;;;;5048275;28;20028;-37
2022/07/16 11:17:10;;;;;;;2.45;2.00;;;24.70;34.70;;;;;;5047328;28;20029;-37
2022/07/16 11:19:41;;;;;;;2.95;2.15;;;24.50;34.20;;;;;;5044985;28;20021;-40
2022/07/16 11:22:07;;;;;;;3.50;2.00;;;24.40;34.00;;;;;;5041882;28;20056;-39
2022/07/16 11:24:33;;;;;;;2.45;2.00;;;24.40;33.90;;;;;;5048750;28;20036;-39
2022/07/16 11:27:00;;;;;;;5.80;2.17;;;24.60;35.00;;;;;;5048674;28;20299;-39
2022/07/16 11:29:27;;;;;;;2.17;2.00;;;24.50;33.90;;;;;;5049626;28;20064;-39
2022/07/16 11:31:55;;;;;;;2.78;1.90;;;24.70;34.30;;;;;;5047467;28;20394;-38
2022/07/16 11:34:22;;;;;;;4.30;2.20;;;24.70;33.90;;;;;;5046508;28;20486;-39
2022/07/16 11:36:50;;;;;;;2.15;1.80;;;24.90;35.10;;;;;;5047019;28;20029;-37
2022/07/16 11:39:19;;;;;;;2.58;1.83;;;24.60;34.80;;;;;;5046841;28;20029;-38
2022/07/16 11:41:47;;;;;;;4.30;1.83;;;24.40;35.20;;;;;;5048238;28;20108;-37
2022/07/16 11:44:15;;;;;;;2.90;1.80;;;24.30;34.30;;;;;;5045802;28;20383;-38
2022/07/16 11:46:51;;;;;;;2.65;2.08;;;23.90;34.60;;;;;;5047741;28;20025;-37
2022/07/16 11:49:32;;;;;;;2.35;2.08;;;24.30;36.00;;;;;;5047520;28;20426;-36
2022/07/16 11:52:00;;;;;;;3.97;2.00;;;24.50;34.70;;;;;;5044447;28;20036;-39
2022/07/16 11:54:26;;;;;;;;;;;24.50;35.00;;;;;;5049801;28;20033;-39
2022/07/16 11:56:54;;;;;;;2.38;2.05;;;24.60;35.70;;;;;;5057959;28;19920;-37
2022/07/16 11:59:21;;;;;;;3.58;2.00;;;24.80;35.00;;;;;;5046599;28;20036;-37
2022/07/16 12:01:57;;;;;;;3.78;2.08;;;24.60;35.00;;;;;;5046161;28;20029;-39
2022/07/16 12:04:32;;;;;;;1.90;1.70;;;24.60;35.40;;;;;;5048282;28;20127;-39
2022/07/16 12:06:57;;;;;;;3.40;2.20;;;24.50;36.20;;;;;;5042492;28;20079;-38
2022/07/16 12:09:35;;;;;;;2.10;1.85;;;24.30;34.60;;;;;;5042175;28;20435;-39
2022/07/16 12:12:04;;;;;;;2.30;2.10;;;24.30;35.80;;;;;;5045820;28;20389;-39
2022/07/16 12:14:48;;;;;;;2.20;2.00;;;24.30;36.00;;;;;;5045763;28;20548;-39
2022/07/16 12:17:32;;;;;;;2.42;2.10;;;24.30;34.80;;;;;;5041267;28;20040;-36
2022/07/16 12:20:12;;;;;;;3.72;1.98;;;24.50;36.10;;;;;;5041431;28;20017;-39
2022/07/16 12:22:46;;;;;;;2.42;2.03;;;24.60;37.00;;;;;;5048576;28;20060;-37
2022/07/16 12:25:23;;;;;;;2.50;2.00;;;24.40;35.00;;;;;;5048048;28;20021;-39
2022/07/16 12:27:53;;;;;;;3.63;2.13;;;24.40;35.20;;;;;;5037252;28;20112;-40
2022/07/16 12:30:27;;;;;;;4.95;2.30;;;24.30;35.00;;;;;;5046140;28;20459;-37
2022/07/16 12:32:55;;;;;;;3.20;2.20;;;24.30;34.90;;;;;;5043386;28;20044;-38
2022/07/16 12:35:55;;;;;;;2.38;1.77;;;24.60;36.80;;;;;;5043437;28;20028;-36
2022/07/16 12:41:18;;;;;;;2.47;1.80;;;24.60;37.10;;;;;;5045925;28;20498;-39
2022/07/16 12:43:48;;;;;;;2.10;1.90;;;24.50;35.40;;;;;;5043290;28;20033;-37
2022/07/16 12:46:16;;;;;;;3.05;1.98;;;24.50;36.70;;;;;;5045855;28;20043;-36
2022/07/16 12:48:51;;;;;;;3.03;1.92;;;24.70;37.10;;;;;;5041378;28;20029;-36
2022/07/16 12:51:21;;;;;;;3.25;1.90;;;24.60;36.60;;;;;;5040604;28;20021;-37
2022/07/16 12:53:47;;;;;;;3.10;2.03;;;24.40;35.40;;;;;;5044607;28;20024;-37
2022/07/16 12:58:58;;;;;;;3.35;1.80;;;24.40;35.20;;;;;;5041343;28;20031;-36
2022/07/16 13:01:26;;;;;;;1.85;1.75;;;24.50;34.70;;;;;;5040143;28;20037;-39
2022/07/16 13:03:53;;;;;;;2.58;2.00;;;24.50;36.60;;;;;;5043106;28;20021;-39